sensor_id;sensor_type;location;lat;lon;timestamp;P1;durP1;ratioP1;P2;durP2;ratioP2
553;SDS011;59;48.778;9.156;2022-09-13T00:00:40;2.30;;;2.10;;
553;SDS011;59;48.778;9.156;2022-09-13T00:03:07;1.97;;;1.90;;
553;SDS011;59;48.778;9.156;2022-09-13T00:05:34;2.30;;;2.10;;
553;SDS011;59;48.778;9.156;2022-09-13T00:08:01;2.27;;;2.10;;
553;SDS011;59;48.778;9.156;2022-09-13T00:10:27;2.20;;;2.00;;
553;SDS011;59;48.778;9.156;2022-09-13T00:12:53;2.10;;;1.97;;
553;SDS011;59;48.778;9.156;2022-09-13T00:15:18;2.77;;;2.37;;
553;SDS011;59;48.778;9.156;2022-09-13T00:17:44;3.20;;;2.17;;
553;SDS011;59;48.778;9.156;2022-09-13T00:20:10;2.73;;;2.37;;
553;SDS011;59;48.778;9.156;2022-09-13T00:22:36;2.00;;;1.90;;
553;SDS011;59;48.778;9.156;2022-09-13T00:25:03;2.40;;;2.27;;
553;SDS011;59;48.778;9.156;2022-09-13T00:27:30;2.60;;;2.20;;
553;SDS011;59;48.778;9.156;2022-09-13T00:29:57;2.53;;;2.10;;
553;SDS011;59;48.778;9.156;2022-09-13T00:32:29;2.70;;;2.13;;
553;SDS011;59;48.778;9.156;2022-09-13T00:34:55;2.40;;;2.17;;
553;SDS011;59;48.778;9.156;2022-09-13T00:37:20;2.70;;;2.00;;
553;SDS011;59;48.778;9.156;2022-09-13T00:39:46;2.40;;;2.23;;
553;SDS011;59;48.778;9.156;2022-09-13T00:42:12;2.20;;;2.00;;
553;SDS011;59;48.778;9.156;2022-09-13T00:44:55;3.80;;;1.87;;
553;SDS011;59;48.778;9.156;2022-09-13T00:47:43;2.20;;;2.00;;
553;SDS011;59;48.778;9.156;2022-09-13T00:52:54;1.97;;;1.90;;
553;SDS011;59;48.778;9.156;2022-09-13T00:55:26;2.37;;;2.00;;
553;SDS011;59;48.778;9.156;2022-09-13T00:58:01;2.40;;;2.20;;
553;SDS011;59;48.778;9.156;2022-09-13T01:00:30;2.30;;;2.10;;
553;SDS011;59;48.778;9.156;2022-09-13T01:02:57;2.70;;;2.20;;
553;SDS011;59;48.778;9.156;2022-09-13T01:05:34;1.73;;;1.70;;
553;SDS011;59;48.778;9.156;2022-09-13T01:08:02;1.97;;;1.90;;
553;SDS011;59;48.778;9.156;2022-09-13T01:10:28;2.50;;;2.00;;
553;SDS011;59;48.778;9.156;2022-09-13T01:13:00;1.87;;;1.77;;
553;SDS011;59;48.778;9.156;2022-09-13T01:15:37;2.17;;;2.03;;
553;SDS011;59;48.778;9.156;2022-09-13T01:18:02;2.10;;;1.93;;
553;SDS011;59;48.778;9.156;2022-09-13T01:20:35;2.17;;;2.00;;
553;SDS011;59;48.778;9.156;2022-09-13T01:31:36;1.87;;;1.83;;
553;SDS011;59;48.778;9.156;2022-09-13T01:34:30;2.30;;;2.17;;
553;SDS011;59;48.778;9.156;2022-09-13T01:37:41;2.10;;;1.90;;
553;SDS011;59;48.778;9.156;2022-09-13T01:48:01;2.60;;;2.40;;
553;SDS011;59;48.778;9.156;2022-09-13T01:50:59;2.37;;;2.07;;
553;SDS011;59;48.778;9.156;2022-09-13T01:56:27;2.70;;;2.47;;
553;SDS011;59;48.778;9.156;2022-09-13T01:59:32;2.50;;;2.30;;
553;SDS011;59;48.778;9.156;2022-09-13T02:02:29;3.27;;;2.30;;
553;SDS011;59;48.778;9.156;2022-09-13T02:05:06;3.20;;;2.60;;
553;SDS011;59;48.778;9.156;2022-09-13T02:07:41;4.00;;;2.70;;
553;SDS011;59;48.778;9.156;2022-09-13T02:10:12;4.50;;;2.30;;
553;SDS011;59;48.778;9.156;2022-09-13T02:12:41;2.77;;;2.10;;
553;SDS011;59;48.778;9.156;2022-09-13T02:15:14;2.67;;;2.53;;
553;SDS011;59;48.778;9.156;2022-09-13T02:17:44;2.40;;;2.10;;
553;SDS011;59;48.778;9.156;2022-09-13T02:20:22;2.50;;;2.10;;
553;SDS011;59;48.778;9.156;2022-09-13T02:22:53;3.50;;;2.80;;
553;SDS011;59;48.778;9.156;2022-09-13T02:25:22;3.53;;;2.17;;
553;SDS011;59;48.778;9.156;2022-09-13T02:27:51;2.40;;;2.20;;
553;SDS011;59;48.778;9.156;2022-09-13T02:30:26;3.03;;;2.50;;
553;SDS011;59;48.778;9.156;2022-09-13T02:32:55;2.73;;;2.53;;
553;SDS011;59;48.778;9.156;2022-09-13T02:35:28;3.00;;;2.60;;
553;SDS011;59;48.778;9.156;2022-09-13T02:38:01;3.10;;;2.90;;
553;SDS011;59;48.778;9.156;2022-09-13T02:40:31;3.07;;;2.43;;
553;SDS011;59;48.778;9.156;2022-09-13T02:43:09;3.17;;;2.50;;
553;SDS011;59;48.778;9.156;2022-09-13T02:45:46;3.10;;;2.60;;
553;SDS011;59;48.778;9.156;2022-09-13T02:48:40;3.57;;;2.53;;
553;SDS011;59;48.778;9.156;2022-09-13T02:54:36;3.00;;;2.80;;
553;SDS011;59;48.778;9.156;2022-09-13T03:00:16;3.10;;;2.50;;
553;SDS011;59;48.778;9.156;2022-09-13T03:02:42;3.17;;;2.60;;
553;SDS011;59;48.778;9.156;2022-09-13T03:05:08;2.47;;;2.30;;
553;SDS011;59;48.778;9.156;2022-09-13T03:07:34;2.87;;;2.30;;
553;SDS011;59;48.778;9.156;2022-09-13T03:10:04;2.93;;;2.60;;
553;SDS011;59;48.778;9.156;2022-09-13T03:18:27;3.43;;;2.37;;
553;SDS011;59;48.778;9.156;2022-09-13T03:21:48;3.00;;;2.80;;
553;SDS011;59;48.778;9.156;2022-09-13T03:31:44;2.40;;;2.23;;
553;SDS011;59;48.778;9.156;2022-09-13T03:34:34;2.90;;;2.37;;
553;SDS011;59;48.778;9.156;2022-09-13T03:40:14;2.80;;;2.47;;
553;SDS011;59;48.778;9.156;2022-09-13T03:42:46;2.87;;;2.67;;
553;SDS011;59;48.778;9.156;2022-09-13T03:45:17;2.70;;;2.50;;
553;SDS011;59;48.778;9.156;2022-09-13T03:47:47;3.70;;;2.90;;
553;SDS011;59;48.778;9.156;2022-09-13T03:50:15;2.67;;;2.50;;
553;SDS011;59;48.778;9.156;2022-09-13T03:52:44;3.30;;;2.43;;
553;SDS011;59;48.778;9.156;2022-09-13T03:55:12;2.63;;;2.47;;
553;SDS011;59;48.778;9.156;2022-09-13T03:57:38;2.83;;;2.70;;
553;SDS011;59;48.778;9.156;2022-09-13T04:00:04;2.90;;;2.50;;
553;SDS011;59;48.778;9.156;2022-09-13T04:02:30;3.53;;;2.80;;
553;SDS011;59;48.778;9.156;2022-09-13T04:04:57;2.80;;;2.50;;
553;SDS011;59;48.778;9.156;2022-09-13T04:07:24;2.90;;;2.57;;
553;SDS011;59;48.778;9.156;2022-09-13T04:09:50;3.30;;;2.90;;
553;SDS011;59;48.778;9.156;2022-09-13T04:12:16;3.07;;;2.80;;
553;SDS011;59;48.778;9.156;2022-09-13T04:14:43;3.40;;;3.00;;
553;SDS011;59;48.778;9.156;2022-09-13T04:17:09;3.20;;;2.80;;
553;SDS011;59;48.778;9.156;2022-09-13T04:19:36;3.40;;;2.87;;
553;SDS011;59;48.778;9.156;2022-09-13T04:22:02;2.93;;;2.63;;
553;SDS011;59;48.778;9.156;2022-09-13T04:24:28;3.73;;;2.70;;
553;SDS011;59;48.778;9.156;2022-09-13T04:26:55;2.93;;;2.43;;
553;SDS011;59;48.778;9.156;2022-09-13T04:29:21;3.00;;;2.43;;
553;SDS011;59;48.778;9.156;2022-09-13T04:31:50;4.37;;;3.17;;
553;SDS011;59;48.778;9.156;2022-09-13T04:34:17;3.13;;;2.73;;
553;SDS011;59;48.778;9.156;2022-09-13T04:36:43;3.83;;;2.60;;
553;SDS011;59;48.778;9.156;2022-09-13T04:39:09;3.37;;;2.80;;
553;SDS011;59;48.778;9.156;2022-09-13T04:41:38;3.40;;;2.83;;
553;SDS011;59;48.778;9.156;2022-09-13T04:44:04;3.00;;;2.80;;
553;SDS011;59;48.778;9.156;2022-09-13T04:46:30;2.90;;;2.77;;
553;SDS011;59;48.778;9.156;2022-09-13T04:48:56;4.83;;;2.90;;
553;SDS011;59;48.778;9.156;2022-09-13T04:51:22;4.70;;;3.30;;
553;SDS011;59;48.778;9.156;2022-09-13T04:53:53;3.10;;;3.00;;
553;SDS011;59;48.778;9.156;2022-09-13T04:56:20;3.20;;;3.03;;
553;SDS011;59;48.778;9.156;2022-09-13T04:58:47;4.10;;;3.10;;
553;SDS011;59;48.778;9.156;2022-09-13T05:01:15;7.43;;;5.87;;
553;SDS011;59;48.778;9.156;2022-09-13T05:03:41;16.60;;;12.70;;
553;SDS011;59;48.778;9.156;2022-09-13T05:06:07;11.10;;;8.37;;
553;SDS011;59;48.778;9.156;2022-09-13T05:08:34;7.00;;;5.60;;
553;SDS011;59;48.778;9.156;2022-09-13T05:11:01;7.00;;;5.30;;
553;SDS011;59;48.778;9.156;2022-09-13T05:13:27;4.47;;;4.23;;
553;SDS011;59;48.778;9.156;2022-09-13T05:15:53;4.90;;;4.17;;
553;SDS011;59;48.778;9.156;2022-09-13T05:18:26;4.73;;;3.53;;
553;SDS011;59;48.778;9.156;2022-09-13T05:20:53;4.30;;;3.37;;
553;SDS011;59;48.778;9.156;2022-09-13T05:23:19;3.73;;;3.43;;
553;SDS011;59;48.778;9.156;2022-09-13T05:25:51;5.80;;;3.70;;
553;SDS011;59;48.778;9.156;2022-09-13T05:28:24;5.37;;;4.00;;
553;SDS011;59;48.778;9.156;2022-09-13T05:31:26;4.83;;;3.60;;
553;SDS011;59;48.778;9.156;2022-09-13T05:33:46;5.50;;;4.07;;
553;SDS011;59;48.778;9.156;2022-09-13T05:36:16;5.20;;;3.73;;
553;SDS011;59;48.778;9.156;2022-09-13T05:38:42;4.80;;;3.60;;
553;SDS011;59;48.778;9.156;2022-09-13T05:41:08;5.70;;;4.20;;
553;SDS011;59;48.778;9.156;2022-09-13T05:43:34;4.70;;;3.80;;
553;SDS011;59;48.778;9.156;2022-09-13T05:48:26;8.87;;;4.17;;
553;SDS011;59;48.778;9.156;2022-09-13T05:50:51;6.87;;;4.00;;
553;SDS011;59;48.778;9.156;2022-09-13T05:53:17;7.87;;;4.17;;
553;SDS011;59;48.778;9.156;2022-09-13T05:55:43;6.40;;;4.20;;
553;SDS011;59;48.778;9.156;2022-09-13T05:58:08;7.77;;;4.07;;
553;SDS011;59;48.778;9.156;2022-09-13T06:00:34;5.27;;;3.80;;
553;SDS011;59;48.778;9.156;2022-09-13T06:02:59;5.43;;;3.63;;
553;SDS011;59;48.778;9.156;2022-09-13T06:05:25;7.63;;;4.13;;
553;SDS011;59;48.778;9.156;2022-09-13T06:07:51;5.53;;;3.97;;
553;SDS011;59;48.778;9.156;2022-09-13T06:10:16;7.80;;;4.40;;
553;SDS011;59;48.778;9.156;2022-09-13T06:12:42;7.10;;;4.07;;
553;SDS011;59;48.778;9.156;2022-09-13T06:15:08;7.07;;;4.40;;
553;SDS011;59;48.778;9.156;2022-09-13T06:17:35;7.40;;;4.30;;
553;SDS011;59;48.778;9.156;2022-09-13T06:20:11;6.17;;;3.97;;
553;SDS011;59;48.778;9.156;2022-09-13T06:22:36;7.03;;;4.00;;
553;SDS011;59;48.778;9.156;2022-09-13T06:25:02;6.37;;;3.90;;
553;SDS011;59;48.778;9.156;2022-09-13T06:27:29;6.43;;;4.00;;
553;SDS011;59;48.778;9.156;2022-09-13T06:29:55;6.33;;;3.97;;
553;SDS011;59;48.778;9.156;2022-09-13T06:32:24;4.27;;;3.77;;
553;SDS011;59;48.778;9.156;2022-09-13T06:34:56;3.70;;;3.40;;
553;SDS011;59;48.778;9.156;2022-09-13T06:37:21;5.43;;;4.37;;
553;SDS011;59;48.778;9.156;2022-09-13T06:39:47;5.50;;;4.20;;
553;SDS011;59;48.778;9.156;2022-09-13T06:42:12;5.67;;;4.13;;
553;SDS011;59;48.778;9.156;2022-09-13T06:44:38;7.37;;;4.87;;
553;SDS011;59;48.778;9.156;2022-09-13T06:47:04;8.60;;;4.57;;
553;SDS011;59;48.778;9.156;2022-09-13T06:49:29;5.53;;;4.17;;
553;SDS011;59;48.778;9.156;2022-09-13T06:51:56;5.90;;;4.10;;
553;SDS011;59;48.778;9.156;2022-09-13T06:54:21;6.17;;;4.20;;
553;SDS011;59;48.778;9.156;2022-09-13T06:56:47;6.40;;;3.83;;
553;SDS011;59;48.778;9.156;2022-09-13T06:59:13;8.33;;;3.87;;
553;SDS011;59;48.778;9.156;2022-09-13T07:01:39;10.00;;;4.50;;
553;SDS011;59;48.778;9.156;2022-09-13T07:04:08;5.27;;;4.03;;
553;SDS011;59;48.778;9.156;2022-09-13T07:06:36;7.53;;;4.17;;
553;SDS011;59;48.778;9.156;2022-09-13T07:09:04;6.83;;;4.10;;
553;SDS011;59;48.778;9.156;2022-09-13T07:11:33;6.63;;;4.70;;
553;SDS011;59;48.778;9.156;2022-09-13T07:14:00;7.10;;;4.13;;
553;SDS011;59;48.778;9.156;2022-09-13T07:16:27;5.57;;;3.90;;
553;SDS011;59;48.778;9.156;2022-09-13T07:18:54;6.80;;;3.90;;
553;SDS011;59;48.778;9.156;2022-09-13T07:21:24;6.43;;;3.60;;
553;SDS011;59;48.778;9.156;2022-09-13T07:23:51;5.17;;;3.70;;
553;SDS011;59;48.778;9.156;2022-09-13T07:26:17;7.53;;;3.60;;
553;SDS011;59;48.778;9.156;2022-09-13T07:28:44;5.30;;;3.40;;
553;SDS011;59;48.778;9.156;2022-09-13T07:33:38;7.93;;;3.60;;
553;SDS011;59;48.778;9.156;2022-09-13T07:36:05;3.90;;;3.33;;
553;SDS011;59;48.778;9.156;2022-09-13T07:38:32;7.03;;;3.50;;
553;SDS011;59;48.778;9.156;2022-09-13T07:41:01;3.37;;;3.07;;
553;SDS011;59;48.778;9.156;2022-09-13T07:43:30;5.20;;;3.10;;
553;SDS011;59;48.778;9.156;2022-09-13T07:45:58;3.30;;;3.10;;
553;SDS011;59;48.778;9.156;2022-09-13T07:48:31;3.90;;;3.10;;
553;SDS011;59;48.778;9.156;2022-09-13T07:53:32;3.87;;;3.10;;
553;SDS011;59;48.778;9.156;2022-09-13T07:56:05;6.27;;;4.33;;
553;SDS011;59;48.778;9.156;2022-09-13T07:58:33;9.67;;;6.67;;
553;SDS011;59;48.778;9.156;2022-09-13T08:01:03;11.67;;;7.10;;
553;SDS011;59;48.778;9.156;2022-09-13T08:03:34;10.17;;;6.30;;
553;SDS011;59;48.778;9.156;2022-09-13T08:06:00;7.73;;;5.60;;
553;SDS011;59;48.778;9.156;2022-09-13T08:08:27;6.90;;;4.97;;
553;SDS011;59;48.778;9.156;2022-09-13T08:10:53;5.30;;;4.20;;
553;SDS011;59;48.778;9.156;2022-09-13T08:13:19;5.23;;;4.40;;
553;SDS011;59;48.778;9.156;2022-09-13T08:15:45;5.43;;;4.00;;
553;SDS011;59;48.778;9.156;2022-09-13T08:18:10;5.57;;;3.60;;
553;SDS011;59;48.778;9.156;2022-09-13T08:20:37;5.57;;;3.60;;
553;SDS011;59;48.778;9.156;2022-09-13T08:23:03;5.00;;;3.50;;
553;SDS011;59;48.778;9.156;2022-09-13T08:25:34;7.17;;;3.90;;
553;SDS011;59;48.778;9.156;2022-09-13T08:28:09;6.50;;;3.23;;
553;SDS011;59;48.778;9.156;2022-09-13T08:30:41;4.60;;;3.43;;
553;SDS011;59;48.778;9.156;2022-09-13T08:33:07;3.97;;;3.27;;
553;SDS011;59;48.778;9.156;2022-09-13T08:35:34;4.07;;;3.10;;
553;SDS011;59;48.778;9.156;2022-09-13T08:38:00;5.00;;;3.27;;
553;SDS011;59;48.778;9.156;2022-09-13T08:40:27;3.60;;;3.03;;
553;SDS011;59;48.778;9.156;2022-09-13T08:43:05;3.20;;;2.53;;
553;SDS011;59;48.778;9.156;2022-09-13T08:45:59;3.90;;;3.13;;
553;SDS011;59;48.778;9.156;2022-09-13T08:48:33;5.53;;;3.20;;
553;SDS011;59;48.778;9.156;2022-09-13T08:51:04;5.77;;;2.80;;
553;SDS011;59;48.778;9.156;2022-09-13T08:53:34;4.47;;;3.07;;
553;SDS011;59;48.778;9.156;2022-09-13T08:56:14;3.17;;;2.97;;
553;SDS011;59;48.778;9.156;2022-09-13T09:07:26;4.20;;;2.90;;
553;SDS011;59;48.778;9.156;2022-09-13T09:10:02;3.13;;;2.90;;
553;SDS011;59;48.778;9.156;2022-09-13T09:15:15;4.53;;;3.23;;
553;SDS011;59;48.778;9.156;2022-09-13T09:20:35;4.30;;;3.20;;
553;SDS011;59;48.778;9.156;2022-09-13T09:23:06;4.90;;;3.13;;
553;SDS011;59;48.778;9.156;2022-09-13T09:25:37;4.07;;;3.20;;
553;SDS011;59;48.778;9.156;2022-09-13T09:28:08;3.40;;;2.90;;
553;SDS011;59;48.778;9.156;2022-09-13T09:33:19;4.70;;;3.00;;
553;SDS011;59;48.778;9.156;2022-09-13T09:38:40;6.23;;;3.70;;
553;SDS011;59;48.778;9.156;2022-09-13T09:44:18;5.20;;;3.33;;
553;SDS011;59;48.778;9.156;2022-09-13T09:46:47;5.67;;;3.17;;
553;SDS011;59;48.778;9.156;2022-09-13T09:52:22;3.50;;;2.73;;
553;SDS011;59;48.778;9.156;2022-09-13T09:54:52;3.47;;;3.07;;
553;SDS011;59;48.778;9.156;2022-09-13T09:57:21;2.83;;;2.43;;
553;SDS011;59;48.778;9.156;2022-09-13T10:00:29;2.73;;;2.43;;
553;SDS011;59;48.778;9.156;2022-09-13T10:03:02;2.77;;;2.47;;
553;SDS011;59;48.778;9.156;2022-09-13T10:05:29;3.20;;;2.37;;
553;SDS011;59;48.778;9.156;2022-09-13T10:08:39;2.80;;;2.40;;
553;SDS011;59;48.778;9.156;2022-09-13T10:10:53;3.03;;;2.40;;
553;SDS011;59;48.778;9.156;2022-09-13T10:13:21;4.07;;;2.63;;
553;SDS011;59;48.778;9.156;2022-09-13T10:15:55;4.67;;;3.07;;
553;SDS011;59;48.778;9.156;2022-09-13T10:18:22;3.50;;;2.80;;
553;SDS011;59;48.778;9.156;2022-09-13T10:21:00;3.33;;;2.80;;
553;SDS011;59;48.778;9.156;2022-09-13T10:23:34;3.90;;;2.90;;
553;SDS011;59;48.778;9.156;2022-09-13T10:31:21;2.90;;;2.43;;
553;SDS011;59;48.778;9.156;2022-09-13T10:34:00;3.20;;;2.43;;
553;SDS011;59;48.778;9.156;2022-09-13T10:37:11;5.97;;;3.10;;
553;SDS011;59;48.778;9.156;2022-09-13T10:39:52;3.57;;;2.70;;
553;SDS011;59;48.778;9.156;2022-09-13T10:42:23;3.67;;;2.90;;
553;SDS011;59;48.778;9.156;2022-09-13T10:45:00;5.23;;;2.93;;
553;SDS011;59;48.778;9.156;2022-09-13T10:47:32;4.10;;;2.47;;
553;SDS011;59;48.778;9.156;2022-09-13T10:52:59;4.10;;;2.33;;
553;SDS011;59;48.778;9.156;2022-09-13T10:55:27;2.80;;;2.30;;
553;SDS011;59;48.778;9.156;2022-09-13T11:00:53;2.17;;;1.80;;
553;SDS011;59;48.778;9.156;2022-09-13T11:09:21;3.70;;;2.50;;
553;SDS011;59;48.778;9.156;2022-09-13T11:14:56;3.10;;;2.10;;
553;SDS011;59;48.778;9.156;2022-09-13T11:30:51;3.07;;;2.60;;
553;SDS011;59;48.778;9.156;2022-09-13T11:55:37;2.70;;;2.40;;
553;SDS011;59;48.778;9.156;2022-09-13T11:58:15;3.30;;;1.90;;
553;SDS011;59;48.778;9.156;2022-09-13T12:00:49;1.90;;;1.63;;
553;SDS011;59;48.778;9.156;2022-09-13T12:03:30;3.13;;;1.67;;
553;SDS011;59;48.778;9.156;2022-09-13T12:06:04;2.27;;;1.73;;
553;SDS011;59;48.778;9.156;2022-09-13T12:08:35;1.80;;;1.60;;
553;SDS011;59;48.778;9.156;2022-09-13T12:11:07;2.00;;;1.60;;
553;SDS011;59;48.778;9.156;2022-09-13T12:16:19;1.73;;;1.60;;
553;SDS011;59;48.778;9.156;2022-09-13T12:18:52;1.60;;;1.60;;
553;SDS011;59;48.778;9.156;2022-09-13T12:21:23;1.97;;;1.50;;
553;SDS011;59;48.778;9.156;2022-09-13T12:29:30;2.57;;;1.73;;
553;SDS011;59;48.778;9.156;2022-09-13T12:32:01;1.97;;;1.70;;
553;SDS011;59;48.778;9.156;2022-09-13T12:34:34;1.57;;;1.47;;
553;SDS011;59;48.778;9.156;2022-09-13T12:40:13;2.10;;;1.70;;
553;SDS011;59;48.778;9.156;2022-09-13T12:42:55;12.17;;;10.57;;
553;SDS011;59;48.778;9.156;2022-09-13T12:53:53;2.23;;;1.83;;
553;SDS011;59;48.778;9.156;2022-09-13T13:04:59;3.10;;;2.03;;
553;SDS011;59;48.778;9.156;2022-09-13T13:07:28;2.00;;;1.90;;
553;SDS011;59;48.778;9.156;2022-09-13T13:09:56;2.17;;;1.90;;
553;SDS011;59;48.778;9.156;2022-09-13T13:12:29;2.63;;;1.87;;
553;SDS011;59;48.778;9.156;2022-09-13T13:14:58;2.30;;;1.67;;
553;SDS011;59;48.778;9.156;2022-09-13T13:17:45;1.50;;;1.50;;
553;SDS011;59;48.778;9.156;2022-09-13T13:31:58;2.40;;;1.63;;
553;SDS011;59;48.778;9.156;2022-09-13T13:36:27;2.30;;;1.70;;
553;SDS011;59;48.778;9.156;2022-09-13T13:38:57;2.70;;;1.63;;
553;SDS011;59;48.778;9.156;2022-09-13T13:44:01;2.97;;;1.70;;
553;SDS011;59;48.778;9.156;2022-09-13T13:46:53;2.70;;;1.47;;
553;SDS011;59;48.778;9.156;2022-09-13T13:54:56;1.70;;;1.30;;
553;SDS011;59;48.778;9.156;2022-09-13T13:59:56;1.53;;;1.47;;
553;SDS011;59;48.778;9.156;2022-09-13T14:05:13;1.40;;;1.10;;
553;SDS011;59;48.778;9.156;2022-09-13T14:11:18;2.10;;;1.37;;
553;SDS011;59;48.778;9.156;2022-09-13T14:14:01;1.97;;;1.10;;
553;SDS011;59;48.778;9.156;2022-09-13T14:24:50;1.43;;;1.37;;
553;SDS011;59;48.778;9.156;2022-09-13T14:29:47;1.13;;;1.10;;
553;SDS011;59;48.778;9.156;2022-09-13T14:32:15;1.30;;;1.10;;
553;SDS011;59;48.778;9.156;2022-09-13T14:35:02;1.40;;;1.10;;
553;SDS011;59;48.778;9.156;2022-09-13T14:37:34;1.10;;;1.00;;
553;SDS011;59;48.778;9.156;2022-09-13T14:42:36;2.40;;;1.40;;
553;SDS011;59;48.778;9.156;2022-09-13T14:45:21;1.23;;;1.20;;
553;SDS011;59;48.778;9.156;2022-09-13T14:50:26;1.20;;;1.10;;
553;SDS011;59;48.778;9.156;2022-09-13T14:53:20;1.30;;;1.10;;
553;SDS011;59;48.778;9.156;2022-09-13T14:55:55;1.83;;;1.13;;
553;SDS011;59;48.778;9.156;2022-09-13T14:58:26;2.13;;;1.20;;
553;SDS011;59;48.778;9.156;2022-09-13T15:01:03;1.83;;;1.10;;
553;SDS011;59;48.778;9.156;2022-09-13T15:03:30;1.20;;;1.10;;
553;SDS011;59;48.778;9.156;2022-09-13T15:06:00;1.50;;;1.20;;
553;SDS011;59;48.778;9.156;2022-09-13T15:08:39;1.80;;;1.17;;
553;SDS011;59;48.778;9.156;2022-09-13T15:11:12;2.03;;;1.20;;
553;SDS011;59;48.778;9.156;2022-09-13T15:14:02;2.13;;;1.30;;
553;SDS011;59;48.778;9.156;2022-09-13T15:16:46;1.87;;;1.50;;
553;SDS011;59;48.778;9.156;2022-09-13T15:21:48;5.90;;;3.90;;
553;SDS011;59;48.778;9.156;2022-09-13T15:24:19;5.00;;;4.10;;
553;SDS011;59;48.778;9.156;2022-09-13T15:26:47;4.23;;;3.60;;
553;SDS011;59;48.778;9.156;2022-09-13T15:29:16;3.30;;;2.30;;
553;SDS011;59;48.778;9.156;2022-09-13T15:31:42;2.40;;;1.90;;
553;SDS011;59;48.778;9.156;2022-09-13T15:37:28;2.13;;;1.50;;
553;SDS011;59;48.778;9.156;2022-09-13T15:42:08;1.37;;;1.30;;
553;SDS011;59;48.778;9.156;2022-09-13T15:44:34;1.57;;;1.43;;
553;SDS011;59;48.778;9.156;2022-09-13T15:47:00;1.67;;;1.37;;
553;SDS011;59;48.778;9.156;2022-09-13T15:49:28;1.50;;;1.07;;
553;SDS011;59;48.778;9.156;2022-09-13T15:51:56;1.67;;;1.40;;
553;SDS011;59;48.778;9.156;2022-09-13T15:54:36;1.17;;;1.10;;
553;SDS011;59;48.778;9.156;2022-09-13T15:57:13;1.23;;;1.20;;
553;SDS011;59;48.778;9.156;2022-09-13T15:59:42;1.70;;;1.40;;
553;SDS011;59;48.778;9.156;2022-09-13T16:02:21;2.33;;;1.20;;
553;SDS011;59;48.778;9.156;2022-09-13T16:04:52;1.23;;;1.03;;
553;SDS011;59;48.778;9.156;2022-09-13T16:07:18;1.50;;;1.40;;
553;SDS011;59;48.778;9.156;2022-09-13T16:09:45;1.50;;;1.40;;
553;SDS011;59;48.778;9.156;2022-09-13T16:12:13;1.60;;;1.50;;
553;SDS011;59;48.778;9.156;2022-09-13T16:14:39;2.63;;;2.40;;
553;SDS011;59;48.778;9.156;2022-09-13T16:17:09;6.50;;;5.20;;
553;SDS011;59;48.778;9.156;2022-09-13T16:19:37;5.00;;;3.90;;
553;SDS011;59;48.778;9.156;2022-09-13T16:22:02;5.03;;;3.67;;
553;SDS011;59;48.778;9.156;2022-09-13T16:24:28;4.40;;;3.53;;
553;SDS011;59;48.778;9.156;2022-09-13T16:26:54;2.90;;;2.70;;
553;SDS011;59;48.778;9.156;2022-09-13T16:29:19;3.57;;;2.60;;
553;SDS011;59;48.778;9.156;2022-09-13T16:31:45;2.50;;;1.90;;
553;SDS011;59;48.778;9.156;2022-09-13T16:34:11;2.37;;;1.90;;
553;SDS011;59;48.778;9.156;2022-09-13T16:36:36;1.70;;;1.63;;
553;SDS011;59;48.778;9.156;2022-09-13T16:39:02;2.57;;;2.00;;
553;SDS011;59;48.778;9.156;2022-09-13T16:41:28;2.90;;;1.70;;
553;SDS011;59;48.778;9.156;2022-09-13T16:43:54;1.80;;;1.70;;
553;SDS011;59;48.778;9.156;2022-09-13T16:46:20;1.63;;;1.60;;
553;SDS011;59;48.778;9.156;2022-09-13T16:48:51;1.63;;;1.60;;
553;SDS011;59;48.778;9.156;2022-09-13T16:51:20;1.73;;;1.50;;
553;SDS011;59;48.778;9.156;2022-09-13T16:53:47;1.60;;;1.50;;
553;SDS011;59;48.778;9.156;2022-09-13T16:56:15;1.60;;;1.50;;
553;SDS011;59;48.778;9.156;2022-09-13T16:58:43;1.97;;;1.50;;
553;SDS011;59;48.778;9.156;2022-09-13T17:01:11;1.40;;;1.40;;
553;SDS011;59;48.778;9.156;2022-09-13T17:03:38;1.60;;;1.50;;
553;SDS011;59;48.778;9.156;2022-09-13T17:06:05;2.97;;;2.80;;
553;SDS011;59;48.778;9.156;2022-09-13T17:08:33;9.60;;;7.50;;
553;SDS011;59;48.778;9.156;2022-09-13T17:11:00;7.70;;;6.30;;
553;SDS011;59;48.778;9.156;2022-09-13T17:13:33;7.53;;;6.10;;
553;SDS011;59;48.778;9.156;2022-09-13T17:15:59;5.20;;;4.67;;
553;SDS011;59;48.778;9.156;2022-09-13T17:18:25;6.07;;;5.13;;
553;SDS011;59;48.778;9.156;2022-09-13T17:20:51;6.20;;;5.23;;
553;SDS011;59;48.778;9.156;2022-09-13T17:23:17;4.80;;;4.43;;
553;SDS011;59;48.778;9.156;2022-09-13T17:25:44;4.60;;;4.13;;
553;SDS011;59;48.778;9.156;2022-09-13T17:28:11;4.30;;;4.03;;
553;SDS011;59;48.778;9.156;2022-09-13T17:30:38;4.37;;;3.70;;
553;SDS011;59;48.778;9.156;2022-09-13T17:33:04;5.37;;;4.07;;
553;SDS011;59;48.778;9.156;2022-09-13T17:35:30;5.03;;;3.90;;
553;SDS011;59;48.778;9.156;2022-09-13T17:37:56;3.80;;;3.30;;
553;SDS011;59;48.778;9.156;2022-09-13T17:40:23;3.10;;;2.90;;
553;SDS011;59;48.778;9.156;2022-09-13T17:42:49;3.20;;;3.07;;
553;SDS011;59;48.778;9.156;2022-09-13T17:45:15;3.23;;;2.90;;
553;SDS011;59;48.778;9.156;2022-09-13T17:47:41;3.30;;;3.00;;
553;SDS011;59;48.778;9.156;2022-09-13T17:50:07;3.57;;;2.93;;
553;SDS011;59;48.778;9.156;2022-09-13T17:52:33;3.00;;;2.80;;
553;SDS011;59;48.778;9.156;2022-09-13T17:54:58;3.53;;;2.80;;
553;SDS011;59;48.778;9.156;2022-09-13T17:57:24;3.33;;;2.90;;
553;SDS011;59;48.778;9.156;2022-09-13T17:59:52;3.90;;;2.90;;
553;SDS011;59;48.778;9.156;2022-09-13T18:02:18;2.60;;;2.40;;
553;SDS011;59;48.778;9.156;2022-09-13T18:04:45;4.63;;;3.40;;
553;SDS011;59;48.778;9.156;2022-09-13T18:07:14;3.83;;;2.87;;
553;SDS011;59;48.778;9.156;2022-09-13T18:09:39;3.50;;;2.70;;
553;SDS011;59;48.778;9.156;2022-09-13T18:12:05;4.40;;;3.10;;
553;SDS011;59;48.778;9.156;2022-09-13T18:14:31;3.27;;;2.93;;
553;SDS011;59;48.778;9.156;2022-09-13T18:16:57;3.73;;;3.27;;
553;SDS011;59;48.778;9.156;2022-09-13T18:19:23;3.40;;;3.10;;
553;SDS011;59;48.778;9.156;2022-09-13T18:21:49;3.13;;;3.00;;
553;SDS011;59;48.778;9.156;2022-09-13T18:24:14;13.43;;;10.73;;
553;SDS011;59;48.778;9.156;2022-09-13T18:26:40;97.10;;;76.73;;
553;SDS011;59;48.778;9.156;2022-09-13T18:29:08;79.47;;;60.50;;
553;SDS011;59;48.778;9.156;2022-09-13T18:31:35;70.80;;;55.40;;
553;SDS011;59;48.778;9.156;2022-09-13T18:34:02;62.00;;;48.20;;
553;SDS011;59;48.778;9.156;2022-09-13T18:36:29;51.43;;;40.00;;
553;SDS011;59;48.778;9.156;2022-09-13T18:38:57;35.90;;;28.33;;
553;SDS011;59;48.778;9.156;2022-09-13T18:41:28;36.00;;;27.70;;
553;SDS011;59;48.778;9.156;2022-09-13T18:43:55;30.90;;;24.70;;
553;SDS011;59;48.778;9.156;2022-09-13T18:46:23;27.03;;;22.57;;
553;SDS011;59;48.778;9.156;2022-09-13T18:48:51;24.17;;;18.80;;
553;SDS011;59;48.778;9.156;2022-09-13T18:51:18;19.30;;;15.93;;
553;SDS011;59;48.778;9.156;2022-09-13T18:53:46;18.07;;;14.27;;
553;SDS011;59;48.778;9.156;2022-09-13T18:56:13;15.07;;;12.07;;
553;SDS011;59;48.778;9.156;2022-09-13T18:58:40;10.87;;;8.40;;
553;SDS011;59;48.778;9.156;2022-09-13T19:01:07;9.53;;;6.90;;
553;SDS011;59;48.778;9.156;2022-09-13T19:03:47;7.90;;;6.40;;
553;SDS011;59;48.778;9.156;2022-09-13T19:06:19;7.90;;;6.33;;
553;SDS011;59;48.778;9.156;2022-09-13T19:08:50;15.60;;;12.43;;
553;SDS011;59;48.778;9.156;2022-09-13T19:11:17;20.87;;;16.10;;
553;SDS011;59;48.778;9.156;2022-09-13T19:13:43;18.70;;;14.80;;
553;SDS011;59;48.778;9.156;2022-09-13T19:16:10;16.40;;;12.97;;
553;SDS011;59;48.778;9.156;2022-09-13T19:18:39;14.13;;;11.10;;
553;SDS011;59;48.778;9.156;2022-09-13T19:21:09;11.00;;;9.17;;
553;SDS011;59;48.778;9.156;2022-09-13T19:23:40;10.77;;;8.90;;
553;SDS011;59;48.778;9.156;2022-09-13T19:26:17;10.13;;;8.00;;
553;SDS011;59;48.778;9.156;2022-09-13T19:28:48;9.70;;;7.20;;
553;SDS011;59;48.778;9.156;2022-09-13T19:31:19;8.67;;;7.13;;
553;SDS011;59;48.778;9.156;2022-09-13T19:33:45;8.07;;;6.40;;
553;SDS011;59;48.778;9.156;2022-09-13T19:36:15;7.13;;;5.93;;
553;SDS011;59;48.778;9.156;2022-09-13T19:38:42;8.10;;;6.10;;
553;SDS011;59;48.778;9.156;2022-09-13T19:41:10;7.17;;;5.67;;
553;SDS011;59;48.778;9.156;2022-09-13T19:43:38;5.77;;;4.97;;
553;SDS011;59;48.778;9.156;2022-09-13T19:46:07;6.40;;;5.03;;
553;SDS011;59;48.778;9.156;2022-09-13T19:48:41;4.90;;;4.40;;
553;SDS011;59;48.778;9.156;2022-09-13T19:51:09;5.60;;;4.40;;
553;SDS011;59;48.778;9.156;2022-09-13T19:53:36;5.70;;;4.27;;
553;SDS011;59;48.778;9.156;2022-09-13T19:56:03;5.03;;;4.43;;